Aeroporto :
LOGIN :

Iscrizione | Disclaimer

   EN    FR    IT 

 










Sommario :    VFR   VFR Marginale   IFR   IFR Intensivo   IFR Molto Intensivo
Visibilità : 
Base nubi : 
>= 8 km
>= 3000ft
5 / 8 km
1000 / 3000 ft
1500m / 5 km
500 / 1000 ft
800 / 1500m
200 / 500 ft
< 800m
< 200 ft
Simboli :   Temporali  Nebbia  Neve Forte  Precipitazioni Forti  Vento > 20 kt
SIGMETs :   Varie  Temporali  Ghiacco  Turbolenza  Onda orograficha  Ceneri Vulcaniche






- Altitudine del aeroporto : 33 ft
- Codice IATA : PLQ


EYPA - Palanga

ULTIMO METAR :
  • 191120Z 22005KT 180V270 9999 BKN017 BKN170 13/10 Q1013

METARs OBSOLETI :
  • 191050Z 23005KT 190V280 9999 SCT015 14/10 Q1013
  • 191020Z 23005KT 190V290 9999 FEW018 14/10 Q1013
  • 190950Z 23005KT 190V280 9999 SCT017 14/10 Q1012
  • 190920Z 25005KT 200V300 9999 SCT020 14/10 Q1012
  • 190850Z 25004KT 200V320 9999 BKN017 13/10 Q1012

TAF TAF EYPA
Valido dal 19 a 12 ore il 20 a 12 ore UTC


191101Z 1912/2012 VRB005 9000 SCT010
TEMPO 1918/1921 3000 MIFG BR
TEMPO 1921/2003 1500 BR SCT003



MetMap, La meteo Aeronautica in un colpo d'occhio ! - Copyright ORBIFLY Dicembre 2007 - Disclaimer

ORBIFLY MET'MAP TEAM :

Programmazione e sviluppo : Alexandra Zaïnal
Concezione e sviluppo : Baudouin d'Aumeries
Co-Programmazione e sviluppo : Marc-Olivier Méhu
Supporto tecnico e logistico : Manuel Goepfert
Aiuto per la traduzione : Arnaldo La Scala

Contatto : metmap@orbifly.com




FONTI E CREDITI :

   NOAA